sensor_id;sensor_type;location;lat;lon;timestamp;P1;durP1;ratioP1;P2;durP2;ratioP2
45762;SDS011;37512;52.408;13.356;2023-03-17T00:00:31;3.53;;;2.50;;
45762;SDS011;37512;52.408;13.356;2023-03-17T00:04:33;4.05;;;2.33;;
45762;SDS011;37512;52.408;13.356;2023-03-17T00:08:35;7.82;;;3.58;;
45762;SDS011;37512;52.408;13.356;2023-03-17T00:12:37;8.15;;;2.80;;
45762;SDS011;37512;52.408;13.356;2023-03-17T00:16:39;3.72;;;2.17;;
45762;SDS011;37512;52.408;13.356;2023-03-17T00:20:43;4.57;;;2.45;;
45762;SDS011;37512;52.408;13.356;2023-03-17T00:24:47;6.63;;;2.50;;
45762;SDS011;37512;52.408;13.356;2023-03-17T00:28:48;3.85;;;2.35;;
45762;SDS011;37512;52.408;13.356;2023-03-17T00:32:52;6.05;;;2.92;;
45762;SDS011;37512;52.408;13.356;2023-03-17T00:36:56;5.60;;;3.00;;
45762;SDS011;37512;52.408;13.356;2023-03-17T00:40:57;6.03;;;3.13;;
45762;SDS011;37512;52.408;13.356;2023-03-17T00:44:59;7.65;;;3.47;;
45762;SDS011;37512;52.408;13.356;2023-03-17T00:49:02;7.05;;;2.58;;
45762;SDS011;37512;52.408;13.356;2023-03-17T00:53:18;5.43;;;3.13;;
45762;SDS011;37512;52.408;13.356;2023-03-17T00:57:21;4.53;;;2.45;;
45762;SDS011;37512;52.408;13.356;2023-03-17T01:01:23;6.47;;;3.38;;
45762;SDS011;37512;52.408;13.356;2023-03-17T01:05:25;8.52;;;2.90;;
45762;SDS011;37512;52.408;13.356;2023-03-17T01:09:26;8.55;;;3.05;;
45762;SDS011;37512;52.408;13.356;2023-03-17T01:13:29;7.07;;;3.35;;
45762;SDS011;37512;52.408;13.356;2023-03-17T01:17:31;8.68;;;3.05;;
45762;SDS011;37512;52.408;13.356;2023-03-17T01:21:32;9.70;;;3.22;;
45762;SDS011;37512;52.408;13.356;2023-03-17T01:25:34;8.98;;;4.03;;
45762;SDS011;37512;52.408;13.356;2023-03-17T01:29:37;9.73;;;3.40;;
45762;SDS011;37512;52.408;13.356;2023-03-17T01:33:39;8.73;;;3.47;;
45762;SDS011;37512;52.408;13.356;2023-03-17T01:37:41;5.55;;;2.97;;
45762;SDS011;37512;52.408;13.356;2023-03-17T01:41:43;7.43;;;3.38;;
45762;SDS011;37512;52.408;13.356;2023-03-17T01:50:25;8.63;;;3.75;;
45762;SDS011;37512;52.408;13.356;2023-03-17T01:54:43;7.68;;;3.88;;
45762;SDS011;37512;52.408;13.356;2023-03-17T01:58:51;6.32;;;3.63;;
45762;SDS011;37512;52.408;13.356;2023-03-17T02:02:55;5.05;;;3.17;;
45762;SDS011;37512;52.408;13.356;2023-03-17T02:06:58;6.95;;;3.72;;
45762;SDS011;37512;52.408;13.356;2023-03-17T02:11:00;8.10;;;3.97;;
45762;SDS011;37512;52.408;13.356;2023-03-17T02:15:03;9.13;;;3.80;;
45762;SDS011;37512;52.408;13.356;2023-03-17T02:19:05;7.88;;;4.68;;
45762;SDS011;37512;52.408;13.356;2023-03-17T02:23:08;9.48;;;3.88;;
45762;SDS011;37512;52.408;13.356;2023-03-17T02:27:12;9.02;;;3.85;;
45762;SDS011;37512;52.408;13.356;2023-03-17T02:31:18;5.63;;;3.97;;
45762;SDS011;37512;52.408;13.356;2023-03-17T02:35:20;7.20;;;4.22;;
45762;SDS011;37512;52.408;13.356;2023-03-17T02:39:22;7.30;;;4.05;;
45762;SDS011;37512;52.408;13.356;2023-03-17T02:43:24;7.70;;;3.67;;
45762;SDS011;37512;52.408;13.356;2023-03-17T02:47:26;7.40;;;4.22;;
45762;SDS011;37512;52.408;13.356;2023-03-17T02:51:28;5.97;;;3.55;;
45762;SDS011;37512;52.408;13.356;2023-03-17T02:55:29;9.57;;;3.53;;
45762;SDS011;37512;52.408;13.356;2023-03-17T02:59:32;7.10;;;3.72;;
45762;SDS011;37512;52.408;13.356;2023-03-17T03:03:34;5.97;;;3.78;;
45762;SDS011;37512;52.408;13.356;2023-03-17T03:07:36;11.00;;;4.60;;
45762;SDS011;37512;52.408;13.356;2023-03-17T03:11:38;10.32;;;4.13;;
45762;SDS011;37512;52.408;13.356;2023-03-17T03:15:41;6.28;;;4.05;;
45762;SDS011;37512;52.408;13.356;2023-03-17T03:19:43;5.65;;;3.47;;
45762;SDS011;37512;52.408;13.356;2023-03-17T03:23:45;6.68;;;4.13;;
45762;SDS011;37512;52.408;13.356;2023-03-17T03:27:46;14.95;;;3.95;;
45762;SDS011;37512;52.408;13.356;2023-03-17T03:31:47;8.98;;;4.15;;
45762;SDS011;37512;52.408;13.356;2023-03-17T03:35:49;6.78;;;4.32;;
45762;SDS011;37512;52.408;13.356;2023-03-17T03:39:51;6.50;;;3.60;;
45762;SDS011;37512;52.408;13.356;2023-03-17T03:43:52;7.78;;;3.95;;
45762;SDS011;37512;52.408;13.356;2023-03-17T03:47:54;9.32;;;4.00;;
45762;SDS011;37512;52.408;13.356;2023-03-17T03:51:56;7.90;;;3.90;;
45762;SDS011;37512;52.408;13.356;2023-03-17T03:55:57;6.68;;;3.53;;
45762;SDS011;37512;52.408;13.356;2023-03-17T03:59:59;6.40;;;3.90;;
45762;SDS011;37512;52.408;13.356;2023-03-17T04:04:01;7.00;;;3.50;;
45762;SDS011;37512;52.408;13.356;2023-03-17T04:08:02;10.63;;;5.22;;
45762;SDS011;37512;52.408;13.356;2023-03-17T04:12:04;7.00;;;3.88;;
45762;SDS011;37512;52.408;13.356;2023-03-17T04:16:07;4.28;;;3.00;;
45762;SDS011;37512;52.408;13.356;2023-03-17T04:20:09;6.10;;;3.67;;
45762;SDS011;37512;52.408;13.356;2023-03-17T04:24:12;9.20;;;3.90;;
45762;SDS011;37512;52.408;13.356;2023-03-17T04:28:14;8.90;;;4.40;;
45762;SDS011;37512;52.408;13.356;2023-03-17T04:32:16;5.38;;;3.70;;
45762;SDS011;37512;52.408;13.356;2023-03-17T04:36:18;10.40;;;4.15;;
45762;SDS011;37512;52.408;13.356;2023-03-17T04:40:24;6.88;;;3.67;;
45762;SDS011;37512;52.408;13.356;2023-03-17T04:44:26;10.80;;;3.83;;
45762;SDS011;37512;52.408;13.356;2023-03-17T04:48:28;6.60;;;3.50;;
45762;SDS011;37512;52.408;13.356;2023-03-17T04:52:29;6.78;;;3.63;;
45762;SDS011;37512;52.408;13.356;2023-03-17T04:56:31;8.35;;;4.25;;
45762;SDS011;37512;52.408;13.356;2023-03-17T05:00:32;7.80;;;3.50;;
45762;SDS011;37512;52.408;13.356;2023-03-17T05:04:38;4.50;;;3.15;;
45762;SDS011;37512;52.408;13.356;2023-03-17T05:08:40;8.52;;;3.65;;
45762;SDS011;37512;52.408;13.356;2023-03-17T05:12:44;7.60;;;3.75;;
45762;SDS011;37512;52.408;13.356;2023-03-17T05:16:46;9.95;;;3.50;;
45762;SDS011;37512;52.408;13.356;2023-03-17T05:20:48;6.70;;;3.13;;
45762;SDS011;37512;52.408;13.356;2023-03-17T05:24:50;8.05;;;3.45;;
45762;SDS011;37512;52.408;13.356;2023-03-17T05:28:51;9.65;;;3.50;;
45762;SDS011;37512;52.408;13.356;2023-03-17T05:32:53;5.20;;;3.20;;
45762;SDS011;37512;52.408;13.356;2023-03-17T05:36:55;6.70;;;2.80;;
45762;SDS011;37512;52.408;13.356;2023-03-17T05:40:56;7.22;;;3.45;;
45762;SDS011;37512;52.408;13.356;2023-03-17T05:44:58;6.78;;;3.20;;
45762;SDS011;37512;52.408;13.356;2023-03-17T05:49:00;7.43;;;2.35;;
45762;SDS011;37512;52.408;13.356;2023-03-17T05:53:01;4.95;;;3.42;;
45762;SDS011;37512;52.408;13.356;2023-03-17T05:57:03;5.45;;;3.67;;
45762;SDS011;37512;52.408;13.356;2023-03-17T06:01:04;7.47;;;3.80;;
45762;SDS011;37512;52.408;13.356;2023-03-17T06:05:06;7.25;;;2.80;;
45762;SDS011;37512;52.408;13.356;2023-03-17T06:09:08;8.40;;;3.50;;
45762;SDS011;37512;52.408;13.356;2023-03-17T06:13:10;5.85;;;3.08;;
45762;SDS011;37512;52.408;13.356;2023-03-17T06:17:11;7.70;;;3.47;;
45762;SDS011;37512;52.408;13.356;2023-03-17T06:21:13;6.80;;;3.20;;
45762;SDS011;37512;52.408;13.356;2023-03-17T06:25:14;5.82;;;2.70;;
45762;SDS011;37512;52.408;13.356;2023-03-17T06:29:16;8.13;;;3.13;;
45762;SDS011;37512;52.408;13.356;2023-03-17T06:33:17;6.28;;;3.13;;
45762;SDS011;37512;52.408;13.356;2023-03-17T06:37:19;8.20;;;3.88;;
45762;SDS011;37512;52.408;13.356;2023-03-17T06:41:21;7.68;;;3.80;;
45762;SDS011;37512;52.408;13.356;2023-03-17T06:45:22;5.43;;;2.85;;
45762;SDS011;37512;52.408;13.356;2023-03-17T06:49:24;7.45;;;2.88;;
45762;SDS011;37512;52.408;13.356;2023-03-17T06:53:26;5.22;;;2.90;;
45762;SDS011;37512;52.408;13.356;2023-03-17T06:57:28;4.93;;;2.60;;
45762;SDS011;37512;52.408;13.356;2023-03-17T07:01:29;5.18;;;3.03;;
45762;SDS011;37512;52.408;13.356;2023-03-17T07:05:31;3.70;;;2.65;;
45762;SDS011;37512;52.408;13.356;2023-03-17T07:09:34;7.10;;;3.13;;
45762;SDS011;37512;52.408;13.356;2023-03-17T07:13:35;6.30;;;3.00;;
45762;SDS011;37512;52.408;13.356;2023-03-17T07:17:38;9.85;;;3.30;;
45762;SDS011;37512;52.408;13.356;2023-03-17T07:21:40;5.78;;;3.38;;
45762;SDS011;37512;52.408;13.356;2023-03-17T07:25:42;4.57;;;2.78;;
45762;SDS011;37512;52.408;13.356;2023-03-17T07:29:44;6.93;;;2.85;;
45762;SDS011;37512;52.408;13.356;2023-03-17T07:33:46;5.30;;;3.13;;
45762;SDS011;37512;52.408;13.356;2023-03-17T07:37:48;5.38;;;2.60;;
45762;SDS011;37512;52.408;13.356;2023-03-17T07:41:49;6.00;;;2.88;;
45762;SDS011;37512;52.408;13.356;2023-03-17T07:45:55;7.45;;;2.55;;
45762;SDS011;37512;52.408;13.356;2023-03-17T07:49:57;3.70;;;2.70;;
45762;SDS011;37512;52.408;13.356;2023-03-17T07:53:58;4.43;;;2.90;;
45762;SDS011;37512;52.408;13.356;2023-03-17T07:58:04;6.65;;;2.60;;
45762;SDS011;37512;52.408;13.356;2023-03-17T08:02:06;6.93;;;3.08;;
45762;SDS011;37512;52.408;13.356;2023-03-17T08:06:10;8.07;;;3.22;;
45762;SDS011;37512;52.408;13.356;2023-03-17T08:10:12;6.70;;;2.78;;
45762;SDS011;37512;52.408;13.356;2023-03-17T08:14:14;6.32;;;3.25;;
45762;SDS011;37512;52.408;13.356;2023-03-17T08:18:15;8.68;;;3.10;;
45762;SDS011;37512;52.408;13.356;2023-03-17T08:22:18;8.55;;;3.97;;
45762;SDS011;37512;52.408;13.356;2023-03-17T08:26:19;5.55;;;3.78;;
45762;SDS011;37512;52.408;13.356;2023-03-17T08:30:21;8.48;;;3.00;;
45762;SDS011;37512;52.408;13.356;2023-03-17T08:34:23;11.35;;;3.28;;
45762;SDS011;37512;52.408;13.356;2023-03-17T08:38:26;7.15;;;3.20;;
45762;SDS011;37512;52.408;13.356;2023-03-17T08:42:28;6.28;;;3.50;;
45762;SDS011;37512;52.408;13.356;2023-03-17T08:46:30;8.40;;;4.28;;
45762;SDS011;37512;52.408;13.356;2023-03-17T08:50:32;5.38;;;2.45;;
45762;SDS011;37512;52.408;13.356;2023-03-17T08:54:35;6.35;;;3.15;;
45762;SDS011;37512;52.408;13.356;2023-03-17T08:58:37;6.57;;;3.20;;
45762;SDS011;37512;52.408;13.356;2023-03-17T09:02:42;5.82;;;2.63;;
45762;SDS011;37512;52.408;13.356;2023-03-17T09:06:45;7.75;;;3.08;;
45762;SDS011;37512;52.408;13.356;2023-03-17T09:11:03;5.15;;;2.42;;
45762;SDS011;37512;52.408;13.356;2023-03-17T09:15:06;6.53;;;2.78;;
45762;SDS011;37512;52.408;13.356;2023-03-17T09:19:08;6.18;;;2.65;;
45762;SDS011;37512;52.408;13.356;2023-03-17T09:23:09;6.90;;;3.25;;
45762;SDS011;37512;52.408;13.356;2023-03-17T09:27:11;5.22;;;3.28;;
45762;SDS011;37512;52.408;13.356;2023-03-17T09:31:13;6.28;;;3.55;;
45762;SDS011;37512;52.408;13.356;2023-03-17T09:35:15;5.03;;;2.80;;
45762;SDS011;37512;52.408;13.356;2023-03-17T09:39:17;5.47;;;2.95;;
45762;SDS011;37512;52.408;13.356;2023-03-17T09:43:22;5.30;;;3.00;;
45762;SDS011;37512;52.408;13.356;2023-03-17T09:51:42;5.22;;;2.80;;
45762;SDS011;37512;52.408;13.356;2023-03-17T09:55:47;7.15;;;2.78;;
45762;SDS011;37512;52.408;13.356;2023-03-17T10:00:05;5.18;;;2.65;;
45762;SDS011;37512;52.408;13.356;2023-03-17T10:04:08;4.70;;;2.75;;
45762;SDS011;37512;52.408;13.356;2023-03-17T10:08:22;6.57;;;2.67;;
45762;SDS011;37512;52.408;13.356;2023-03-17T10:20:42;3.35;;;2.22;;
45762;SDS011;37512;52.408;13.356;2023-03-17T10:24:53;3.92;;;2.50;;
45762;SDS011;37512;52.408;13.356;2023-03-17T10:29:03;4.53;;;2.47;;
45762;SDS011;37512;52.408;13.356;2023-03-17T10:33:12;7.53;;;2.85;;
45762;SDS011;37512;52.408;13.356;2023-03-17T10:37:16;6.03;;;2.78;;
45762;SDS011;37512;52.408;13.356;2023-03-17T10:41:18;5.75;;;2.90;;
45762;SDS011;37512;52.408;13.356;2023-03-17T10:45:27;10.07;;;3.03;;
45762;SDS011;37512;52.408;13.356;2023-03-17T10:49:34;3.72;;;2.40;;
45762;SDS011;37512;52.408;13.356;2023-03-17T10:53:38;4.22;;;2.75;;
45762;SDS011;37512;52.408;13.356;2023-03-17T10:57:55;4.32;;;2.47;;
45762;SDS011;37512;52.408;13.356;2023-03-17T11:02:15;4.85;;;2.13;;
45762;SDS011;37512;52.408;13.356;2023-03-17T11:06:37;5.97;;;3.10;;
45762;SDS011;37512;52.408;13.356;2023-03-17T11:10:43;5.90;;;2.80;;
45762;SDS011;37512;52.408;13.356;2023-03-17T11:14:46;5.03;;;2.35;;
45762;SDS011;37512;52.408;13.356;2023-03-17T11:18:52;3.60;;;2.28;;
45762;SDS011;37512;52.408;13.356;2023-03-17T11:27:14;4.88;;;2.63;;
45762;SDS011;37512;52.408;13.356;2023-03-17T11:31:48;4.20;;;2.42;;
45762;SDS011;37512;52.408;13.356;2023-03-17T11:49:09;4.10;;;2.37;;
45762;SDS011;37512;52.408;13.356;2023-03-17T11:58:17;6.07;;;2.50;;
45762;SDS011;37512;52.408;13.356;2023-03-17T12:06:43;3.42;;;2.30;;
45762;SDS011;37512;52.408;13.356;2023-03-17T12:10:53;4.20;;;2.35;;
45762;SDS011;37512;52.408;13.356;2023-03-17T12:14:59;7.97;;;2.40;;
45762;SDS011;37512;52.408;13.356;2023-03-17T12:19:12;6.40;;;2.45;;
45762;SDS011;37512;52.408;13.356;2023-03-17T12:27:53;6.32;;;1.98;;
45762;SDS011;37512;52.408;13.356;2023-03-17T12:32:11;4.80;;;1.73;;
45762;SDS011;37512;52.408;13.356;2023-03-17T12:36:14;5.07;;;2.65;;
45762;SDS011;37512;52.408;13.356;2023-03-17T12:40:24;4.50;;;2.00;;
45762;SDS011;37512;52.408;13.356;2023-03-17T12:57:26;7.63;;;1.80;;
45762;SDS011;37512;52.408;13.356;2023-03-17T13:01:38;4.60;;;2.20;;
45762;SDS011;37512;52.408;13.356;2023-03-17T13:05:47;6.15;;;2.10;;
45762;SDS011;37512;52.408;13.356;2023-03-17T13:13:55;3.97;;;2.20;;
45762;SDS011;37512;52.408;13.356;2023-03-17T13:18:21;4.88;;;2.13;;
45762;SDS011;37512;52.408;13.356;2023-03-17T13:22:34;6.40;;;1.83;;
45762;SDS011;37512;52.408;13.356;2023-03-17T13:27:14;6.10;;;2.35;;
45762;SDS011;37512;52.408;13.356;2023-03-17T13:35:17;4.53;;;2.00;;
45762;SDS011;37512;52.408;13.356;2023-03-17T13:48:55;3.42;;;1.90;;
45762;SDS011;37512;52.408;13.356;2023-03-17T14:00:44;2.25;;;1.58;;
45762;SDS011;37512;52.408;13.356;2023-03-17T14:04:51;2.75;;;1.60;;
45762;SDS011;37512;52.408;13.356;2023-03-17T14:09:06;4.90;;;2.00;;
45762;SDS011;37512;52.408;13.356;2023-03-17T14:13:16;3.60;;;1.65;;
45762;SDS011;37512;52.408;13.356;2023-03-17T14:17:27;4.22;;;1.90;;
45762;SDS011;37512;52.408;13.356;2023-03-17T14:25:37;4.25;;;1.70;;
45762;SDS011;37512;52.408;13.356;2023-03-17T14:29:39;4.60;;;1.90;;
45762;SDS011;37512;52.408;13.356;2023-03-17T14:33:41;5.50;;;2.65;;
45762;SDS011;37512;52.408;13.356;2023-03-17T14:37:43;3.90;;;1.77;;
45762;SDS011;37512;52.408;13.356;2023-03-17T14:41:45;4.65;;;1.80;;
45762;SDS011;37512;52.408;13.356;2023-03-17T14:49:49;7.25;;;2.05;;
45762;SDS011;37512;52.408;13.356;2023-03-17T14:53:55;4.53;;;1.85;;
45762;SDS011;37512;52.408;13.356;2023-03-17T14:58:04;4.43;;;2.10;;
45762;SDS011;37512;52.408;13.356;2023-03-17T15:02:16;2.30;;;1.50;;
45762;SDS011;37512;52.408;13.356;2023-03-17T15:06:23;2.53;;;1.80;;
45762;SDS011;37512;52.408;13.356;2023-03-17T15:10:27;4.43;;;2.20;;
45762;SDS011;37512;52.408;13.356;2023-03-17T15:14:36;3.58;;;2.03;;
45762;SDS011;37512;52.408;13.356;2023-03-17T15:18:40;4.45;;;1.80;;
45762;SDS011;37512;52.408;13.356;2023-03-17T15:22:43;4.05;;;2.30;;
45762;SDS011;37512;52.408;13.356;2023-03-17T15:26:48;3.10;;;1.73;;
45762;SDS011;37512;52.408;13.356;2023-03-17T15:30:51;3.60;;;1.90;;
45762;SDS011;37512;52.408;13.356;2023-03-17T15:34:54;2.90;;;1.85;;
45762;SDS011;37512;52.408;13.356;2023-03-17T15:38:59;5.43;;;2.25;;
45762;SDS011;37512;52.408;13.356;2023-03-17T15:43:03;4.70;;;1.95;;
45762;SDS011;37512;52.408;13.356;2023-03-17T15:47:04;4.05;;;1.73;;
45762;SDS011;37512;52.408;13.356;2023-03-17T15:51:06;3.10;;;1.90;;
45762;SDS011;37512;52.408;13.356;2023-03-17T15:55:13;3.75;;;2.20;;
45762;SDS011;37512;52.408;13.356;2023-03-17T15:59:25;4.93;;;2.22;;
45762;SDS011;37512;52.408;13.356;2023-03-17T16:03:32;3.95;;;1.92;;
45762;SDS011;37512;52.408;13.356;2023-03-17T16:07:35;4.07;;;2.13;;
45762;SDS011;37512;52.408;13.356;2023-03-17T16:11:36;3.75;;;1.98;;
45762;SDS011;37512;52.408;13.356;2023-03-17T16:15:41;5.20;;;2.53;;
45762;SDS011;37512;52.408;13.356;2023-03-17T16:19:44;4.35;;;2.42;;
45762;SDS011;37512;52.408;13.356;2023-03-17T16:23:46;3.30;;;1.95;;
45762;SDS011;37512;52.408;13.356;2023-03-17T16:27:48;5.70;;;1.80;;
45762;SDS011;37512;52.408;13.356;2023-03-17T16:31:50;4.15;;;1.90;;
45762;SDS011;37512;52.408;13.356;2023-03-17T16:35:52;4.85;;;1.83;;
45762;SDS011;37512;52.408;13.356;2023-03-17T16:39:55;4.72;;;2.00;;
45762;SDS011;37512;52.408;13.356;2023-03-17T16:44:01;4.50;;;2.05;;
45762;SDS011;37512;52.408;13.356;2023-03-17T16:48:03;5.82;;;2.10;;
45762;SDS011;37512;52.408;13.356;2023-03-17T16:52:05;3.30;;;2.10;;
45762;SDS011;37512;52.408;13.356;2023-03-17T16:56:14;5.60;;;2.30;;
45762;SDS011;37512;52.408;13.356;2023-03-17T17:00:22;4.70;;;2.28;;
45762;SDS011;37512;52.408;13.356;2023-03-17T17:04:26;3.10;;;1.83;;
45762;SDS011;37512;52.408;13.356;2023-03-17T17:08:27;6.25;;;2.70;;
45762;SDS011;37512;52.408;13.356;2023-03-17T17:12:29;2.30;;;1.73;;
45762;SDS011;37512;52.408;13.356;2023-03-17T17:16:33;3.50;;;2.20;;
45762;SDS011;37512;52.408;13.356;2023-03-17T17:20:37;2.65;;;1.98;;
45762;SDS011;37512;52.408;13.356;2023-03-17T17:24:39;2.72;;;1.65;;
45762;SDS011;37512;52.408;13.356;2023-03-17T17:28:41;3.63;;;2.15;;
45762;SDS011;37512;52.408;13.356;2023-03-17T17:32:43;4.80;;;2.38;;
45762;SDS011;37512;52.408;13.356;2023-03-17T17:36:45;3.65;;;2.47;;
45762;SDS011;37512;52.408;13.356;2023-03-17T17:40:47;4.05;;;2.50;;
45762;SDS011;37512;52.408;13.356;2023-03-17T17:44:49;6.63;;;2.67;;
45762;SDS011;37512;52.408;13.356;2023-03-17T17:48:51;5.68;;;3.03;;
45762;SDS011;37512;52.408;13.356;2023-03-17T17:52:52;4.45;;;2.40;;
45762;SDS011;37512;52.408;13.356;2023-03-17T17:56:55;5.82;;;2.67;;
45762;SDS011;37512;52.408;13.356;2023-03-17T18:00:56;5.60;;;3.00;;
45762;SDS011;37512;52.408;13.356;2023-03-17T18:04:58;7.30;;;2.60;;
45762;SDS011;37512;52.408;13.356;2023-03-17T18:09:00;2.90;;;2.20;;
45762;SDS011;37512;52.408;13.356;2023-03-17T18:13:02;4.00;;;2.30;;
45762;SDS011;37512;52.408;13.356;2023-03-17T18:17:04;8.35;;;3.10;;
45762;SDS011;37512;52.408;13.356;2023-03-17T18:21:05;5.63;;;2.85;;
45762;SDS011;37512;52.408;13.356;2023-03-17T18:25:07;6.75;;;3.28;;
45762;SDS011;37512;52.408;13.356;2023-03-17T18:29:10;6.72;;;3.15;;
45762;SDS011;37512;52.408;13.356;2023-03-17T18:33:13;7.47;;;3.25;;
45762;SDS011;37512;52.408;13.356;2023-03-17T18:37:18;4.05;;;2.88;;
45762;SDS011;37512;52.408;13.356;2023-03-17T18:41:19;5.57;;;2.90;;
45762;SDS011;37512;52.408;13.356;2023-03-17T18:45:21;5.90;;;3.28;;
45762;SDS011;37512;52.408;13.356;2023-03-17T18:49:23;6.68;;;3.75;;
45762;SDS011;37512;52.408;13.356;2023-03-17T18:53:27;4.63;;;2.92;;
45762;SDS011;37512;52.408;13.356;2023-03-17T18:57:30;6.90;;;3.65;;
45762;SDS011;37512;52.408;13.356;2023-03-17T19:01:33;5.05;;;3.10;;
45762;SDS011;37512;52.408;13.356;2023-03-17T19:05:35;12.15;;;5.63;;
45762;SDS011;37512;52.408;13.356;2023-03-17T19:09:38;5.97;;;3.50;;
45762;SDS011;37512;52.408;13.356;2023-03-17T19:13:40;7.10;;;3.55;;
45762;SDS011;37512;52.408;13.356;2023-03-17T19:17:42;5.57;;;3.65;;
45762;SDS011;37512;52.408;13.356;2023-03-17T19:21:44;6.20;;;3.17;;
45762;SDS011;37512;52.408;13.356;2023-03-17T19:25:46;5.47;;;3.55;;
45762;SDS011;37512;52.408;13.356;2023-03-17T19:29:48;6.38;;;3.55;;
45762;SDS011;37512;52.408;13.356;2023-03-17T19:33:49;12.00;;;3.80;;
45762;SDS011;37512;52.408;13.356;2023-03-17T19:37:51;7.13;;;3.35;;
45762;SDS011;37512;52.408;13.356;2023-03-17T19:41:53;6.00;;;3.95;;
45762;SDS011;37512;52.408;13.356;2023-03-17T19:45:55;6.00;;;3.97;;
45762;SDS011;37512;52.408;13.356;2023-03-17T19:49:57;7.38;;;4.28;;
45762;SDS011;37512;52.408;13.356;2023-03-17T19:53:58;7.40;;;3.35;;
45762;SDS011;37512;52.408;13.356;2023-03-17T19:58:00;7.00;;;3.60;;
45762;SDS011;37512;52.408;13.356;2023-03-17T20:02:04;6.15;;;4.00;;
45762;SDS011;37512;52.408;13.356;2023-03-17T20:06:12;9.05;;;4.68;;
45762;SDS011;37512;52.408;13.356;2023-03-17T20:10:14;7.63;;;3.72;;
45762;SDS011;37512;52.408;13.356;2023-03-17T20:14:16;8.02;;;4.60;;
45762;SDS011;37512;52.408;13.356;2023-03-17T20:18:17;6.03;;;3.90;;
45762;SDS011;37512;52.408;13.356;2023-03-17T20:22:19;6.75;;;4.18;;
45762;SDS011;37512;52.408;13.356;2023-03-17T20:26:21;8.52;;;4.30;;
45762;SDS011;37512;52.408;13.356;2023-03-17T20:30:23;6.88;;;4.40;;
45762;SDS011;37512;52.408;13.356;2023-03-17T20:34:24;8.48;;;4.82;;
45762;SDS011;37512;52.408;13.356;2023-03-17T20:38:26;7.95;;;4.63;;
45762;SDS011;37512;52.408;13.356;2023-03-17T20:42:28;8.57;;;4.72;;
45762;SDS011;37512;52.408;13.356;2023-03-17T20:46:29;8.43;;;5.47;;
45762;SDS011;37512;52.408;13.356;2023-03-17T20:50:31;9.25;;;5.75;;
45762;SDS011;37512;52.408;13.356;2023-03-17T20:54:34;12.90;;;5.20;;
45762;SDS011;37512;52.408;13.356;2023-03-17T20:58:36;8.98;;;4.95;;
45762;SDS011;37512;52.408;13.356;2023-03-17T21:02:37;9.43;;;5.25;;
45762;SDS011;37512;52.408;13.356;2023-03-17T21:06:39;9.18;;;5.25;;
45762;SDS011;37512;52.408;13.356;2023-03-17T21:10:42;11.68;;;5.65;;
45762;SDS011;37512;52.408;13.356;2023-03-17T21:14:44;10.75;;;5.80;;
45762;SDS011;37512;52.408;13.356;2023-03-17T21:18:48;12.63;;;7.63;;
45762;SDS011;37512;52.408;13.356;2023-03-17T21:22:49;10.45;;;6.07;;
45762;SDS011;37512;52.408;13.356;2023-03-17T21:26:51;11.98;;;5.38;;
45762;SDS011;37512;52.408;13.356;2023-03-17T21:30:53;9.73;;;5.45;;
45762;SDS011;37512;52.408;13.356;2023-03-17T21:34:55;8.65;;;5.63;;
45762;SDS011;37512;52.408;13.356;2023-03-17T21:38:56;9.07;;;5.07;;
45762;SDS011;37512;52.408;13.356;2023-03-17T21:42:58;10.85;;;5.90;;
45762;SDS011;37512;52.408;13.356;2023-03-17T21:47:00;11.05;;;6.25;;
45762;SDS011;37512;52.408;13.356;2023-03-17T21:51:03;9.30;;;4.68;;
45762;SDS011;37512;52.408;13.356;2023-03-17T21:55:05;9.57;;;5.07;;
45762;SDS011;37512;52.408;13.356;2023-03-17T21:59:08;8.95;;;5.43;;
45762;SDS011;37512;52.408;13.356;2023-03-17T22:03:11;12.85;;;5.88;;
45762;SDS011;37512;52.408;13.356;2023-03-17T22:07:13;8.50;;;4.93;;
45762;SDS011;37512;52.408;13.356;2023-03-17T22:11:17;11.65;;;7.43;;
45762;SDS011;37512;52.408;13.356;2023-03-17T22:15:19;8.68;;;5.20;;
45762;SDS011;37512;52.408;13.356;2023-03-17T22:19:22;6.70;;;4.55;;
45762;SDS011;37512;52.408;13.356;2023-03-17T22:23:24;9.32;;;5.28;;
45762;SDS011;37512;52.408;13.356;2023-03-17T22:27:26;9.35;;;5.43;;
45762;SDS011;37512;52.408;13.356;2023-03-17T22:31:28;9.80;;;4.95;;
45762;SDS011;37512;52.408;13.356;2023-03-17T22:35:30;9.40;;;5.43;;
45762;SDS011;37512;52.408;13.356;2023-03-17T22:39:32;11.07;;;5.47;;
45762;SDS011;37512;52.408;13.356;2023-03-17T22:43:34;8.80;;;4.80;;
45762;SDS011;37512;52.408;13.356;2023-03-17T22:47:36;14.07;;;5.55;;
45762;SDS011;37512;52.408;13.356;2023-03-17T22:51:38;11.68;;;6.03;;
45762;SDS011;37512;52.408;13.356;2023-03-17T22:55:41;13.70;;;5.15;;
45762;SDS011;37512;52.408;13.356;2023-03-17T22:59:43;11.57;;;5.88;;
45762;SDS011;37512;52.408;13.356;2023-03-17T23:03:45;13.77;;;7.35;;
45762;SDS011;37512;52.408;13.356;2023-03-17T23:07:47;10.05;;;5.28;;
45762;SDS011;37512;52.408;13.356;2023-03-17T23:11:51;9.07;;;5.78;;
45762;SDS011;37512;52.408;13.356;2023-03-17T23:15:52;7.03;;;4.57;;
45762;SDS011;37512;52.408;13.356;2023-03-17T23:19:54;10.93;;;5.85;;
45762;SDS011;37512;52.408;13.356;2023-03-17T23:23:56;10.18;;;6.03;;
45762;SDS011;37512;52.408;13.356;2023-03-17T23:27:58;9.65;;;4.55;;
45762;SDS011;37512;52.408;13.356;2023-03-17T23:32:00;6.70;;;3.90;;
45762;SDS011;37512;52.408;13.356;2023-03-17T23:36:03;11.75;;;4.72;;
45762;SDS011;37512;52.408;13.356;2023-03-17T23:40:07;10.35;;;4.68;;
45762;SDS011;37512;52.408;13.356;2023-03-17T23:44:14;10.55;;;4.82;;
45762;SDS011;37512;52.408;13.356;2023-03-17T23:48:16;9.88;;;4.43;;
45762;SDS011;37512;52.408;13.356;2023-03-17T23:52:18;9.45;;;4.68;;
45762;SDS011;37512;52.408;13.356;2023-03-17T23:56:21;9.55;;;4.50;;
